FDX456 MTPP-KFLL
Flight info
| Callsign | FDX456 |
|---|---|
| Flight time | 1h 57m |
| Altitude | 34000 |
| Route | JOSES Y398 KNSLY Y350 ZQA OLAHS3 |
| Aircraft | B742/H-SDFHIRWXY/L |
Departure
| Time | 2026-04-24 11:59 |
|---|---|
| Airport | Toussaint Louverture International Airport (MTPP) |
Arrival
| Time | 2026-04-24 13:57 |
|---|---|
| Airport | Fort Lauderdale Hollywood International Airport (KFLL) |
| Time | Latitude | Longitude | Altitude | Speed | Heading |
|---|---|---|---|---|---|
| 2026-04-24 11:12 | 18.57640 | -72.29333 | 168 ft | 0 kts | 177° |
| 2026-04-24 11:46 | 18.57649 | -72.29333 | 168 ft | 2 kts | 169° |
| 2026-04-24 11:46 | 18.57663 | -72.29340 | 168 ft | 2 kts | 147° |
| 2026-04-24 11:46 | 18.57674 | -72.29349 | 168 ft | 2 kts | 129° |
| 2026-04-24 11:47 | 18.57682 | -72.29363 | 168 ft | 2 kts | 111° |
| 2026-04-24 11:47 | 18.57686 | -72.29378 | 168 ft | 2 kts | 94° |
| 2026-04-24 11:47 | 18.57685 | -72.29394 | 168 ft | 2 kts | 84° |
| 2026-04-24 11:47 | 18.57684 | -72.29410 | 168 ft | 2 kts | 87° |
| 2026-04-24 11:48 | 18.57683 | -72.29426 | 168 ft | 2 kts | 88° |
| 2026-04-24 11:48 | 18.57683 | -72.29442 | 168 ft | 2 kts | 87° |
| 2026-04-24 11:48 | 18.57682 | -72.29458 | 168 ft | 2 kts | 88° |
| 2026-04-24 11:48 | 18.57681 | -72.29473 | 168 ft | 2 kts | 88° |
| 2026-04-24 11:49 | 18.57681 | -72.29489 | 168 ft | 2 kts | 87° |
| 2026-04-24 11:49 | 18.57680 | -72.29505 | 167 ft | 2 kts | 87° |
| 2026-04-24 11:49 | 18.57680 | -72.29520 | 167 ft | 2 kts | 88° |
| 2026-04-24 11:49 | 18.57679 | -72.29536 | 167 ft | 2 kts | 87° |
| 2026-04-24 11:50 | 18.57678 | -72.29552 | 167 ft | 2 kts | 87° |
| 2026-04-24 11:50 | 18.57678 | -72.29558 | 167 ft | 0 kts | 88° |
| 2026-04-24 11:54 | 18.57678 | -72.29555 | 169 ft | 1 kts | 88° |
| 2026-04-24 11:54 | 18.57679 | -72.29530 | 169 ft | 5 kts | 88° |
| 2026-04-24 11:54 | 18.57694 | -72.29481 | 169 ft | 8 kts | 47° |
| 2026-04-24 11:55 | 18.57753 | -72.29461 | 169 ft | 9 kts | 359° |
| 2026-04-24 11:55 | 18.57838 | -72.29464 | 169 ft | 14 kts | 358° |
| 2026-04-24 11:55 | 18.57959 | -72.29470 | 170 ft | 10 kts | 348° |
| 2026-04-24 11:55 | 18.57991 | -72.29533 | 169 ft | 12 kts | 270° |
| 2026-04-24 11:56 | 18.57986 | -72.29645 | 169 ft | 17 kts | 267° |
| 2026-04-24 11:56 | 18.57978 | -72.29797 | 169 ft | 23 kts | 266° |
| 2026-04-24 11:56 | 18.57968 | -72.29986 | 169 ft | 28 kts | 267° |
| 2026-04-24 11:56 | 18.57956 | -72.30208 | 169 ft | 32 kts | 268° |
| 2026-04-24 11:57 | 18.57947 | -72.30456 | 169 ft | 28 kts | 269° |
| 2026-04-24 11:57 | 18.57929 | -72.30623 | 169 ft | 13 kts | 242° |
| 2026-04-24 11:57 | 18.57912 | -72.30660 | 169 ft | 3 kts | 304° |
| 2026-04-24 11:57 | 18.57932 | -72.30657 | 169 ft | 3 kts | 56° |
| 2026-04-24 11:58 | 18.57935 | -72.30635 | 169 ft | 0 kts | 87° |
| 2026-04-24 11:59 | 18.57944 | -72.30426 | 169 ft | 73 kts | 87° |
| 2026-04-24 11:59 | 18.57987 | -72.29584 | 170 ft | 152 kts | 87° |
| 2026-04-24 11:59 | 18.58064 | -72.28258 | 342 ft | 201 kts | 88° |
| 2026-04-24 11:59 | 18.58158 | -72.26842 | 1379 ft | 186 kts | 84° |
| 2026-04-24 12:00 | 18.58359 | -72.25590 | 2265 ft | 171 kts | 90° |
| 2026-04-24 12:00 | 18.58330 | -72.24317 | 2797 ft | 175 kts | 88° |
| 2026-04-24 12:00 | 18.58223 | -72.23054 | 3349 ft | 177 kts | 108° |
| 2026-04-24 12:00 | 18.57912 | -72.21785 | 3912 ft | 182 kts | 103° |
| 2026-04-24 12:01 | 18.57629 | -72.20451 | 4439 ft | 190 kts | 103° |
| 2026-04-24 12:01 | 18.57356 | -72.19079 | 5008 ft | 194 kts | 102° |
| 2026-04-24 12:01 | 18.57085 | -72.17673 | 5531 ft | 200 kts | 102° |
| 2026-04-24 12:01 | 18.56807 | -72.16207 | 6109 ft | 208 kts | 102° |
| 2026-04-24 12:02 | 18.56524 | -72.14705 | 6746 ft | 213 kts | 102° |
| 2026-04-24 12:02 | 18.56235 | -72.13163 | 7408 ft | 216 kts | 102° |
| 2026-04-24 12:02 | 18.55942 | -72.11594 | 8080 ft | 219 kts | 102° |
| 2026-04-24 12:02 | 18.55647 | -72.10018 | 8733 ft | 223 kts | 102° |
| 2026-04-24 12:03 | 18.55357 | -72.08398 | 9379 ft | 227 kts | 97° |
| 2026-04-24 12:03 | 18.55569 | -72.06744 | 9796 ft | 240 kts | 61° |
| 2026-04-24 12:03 | 18.56714 | -72.05409 | 10090 ft | 258 kts | 27° |
| 2026-04-24 12:03 | 18.58509 | -72.04899 | 10393 ft | 276 kts | 356° |
| 2026-04-24 12:04 | 18.60395 | -72.05442 | 10693 ft | 294 kts | 327° |
| 2026-04-24 12:04 | 18.61982 | -72.06925 | 10997 ft | 314 kts | 307° |
| 2026-04-24 12:04 | 18.63085 | -72.08995 | 11292 ft | 335 kts | 289° |
| 2026-04-24 12:04 | 18.63575 | -72.11492 | 11588 ft | 356 kts | 272° |
| 2026-04-24 12:05 | 18.63442 | -72.14163 | 11888 ft | 373 kts | 264° |
| 2026-04-24 12:05 | 18.63233 | -72.16814 | 12167 ft | 377 kts | 268° |
| 2026-04-24 12:05 | 18.63328 | -72.19630 | 12467 ft | 381 kts | 275° |
| 2026-04-24 12:05 | 18.63699 | -72.22398 | 12758 ft | 381 kts | 279° |
| 2026-04-24 12:06 | 18.64214 | -72.25137 | 13048 ft | 385 kts | 282° |
| 2026-04-24 12:06 | 18.64801 | -72.27915 | 13329 ft | 385 kts | 282° |
| 2026-04-24 12:06 | 18.65399 | -72.30655 | 13606 ft | 387 kts | 282° |
| 2026-04-24 12:06 | 18.66011 | -72.33437 | 13887 ft | 387 kts | 282° |
| 2026-04-24 12:07 | 18.66625 | -72.36234 | 14170 ft | 388 kts | 283° |
| 2026-04-24 12:07 | 18.67599 | -72.38903 | 14450 ft | 391 kts | 298° |
| 2026-04-24 12:07 | 18.69213 | -72.41232 | 14728 ft | 395 kts | 313° |
| 2026-04-24 12:07 | 18.71345 | -72.43051 | 15005 ft | 398 kts | 327° |
| 2026-04-24 12:08 | 18.73910 | -72.44268 | 15287 ft | 403 kts | 341° |
| 2026-04-24 12:08 | 18.76654 | -72.44926 | 15578 ft | 406 kts | 347° |
| 2026-04-24 12:08 | 18.79445 | -72.45531 | 15867 ft | 407 kts | 344° |
| 2026-04-24 12:08 | 18.82200 | -72.46407 | 16163 ft | 408 kts | 338° |
| 2026-04-24 12:09 | 18.84844 | -72.47517 | 16453 ft | 408 kts | 334° |
| 2026-04-24 12:09 | 18.87463 | -72.48782 | 16746 ft | 409 kts | 332° |
| 2026-04-24 12:09 | 18.90021 | -72.50096 | 17035 ft | 411 kts | 331° |
| 2026-04-24 12:09 | 18.92611 | -72.51457 | 17326 ft | 412 kts | 331° |
| 2026-04-24 12:10 | 18.95181 | -72.52817 | 17612 ft | 414 kts | 330° |
| 2026-04-24 12:10 | 18.97788 | -72.54196 | 17904 ft | 414 kts | 330° |
| 2026-04-24 12:10 | 19.00399 | -72.55576 | 18197 ft | 417 kts | 330° |
| 2026-04-24 12:11 | 19.05623 | -72.58338 | 18757 ft | 419 kts | 330° |
| 2026-04-24 12:11 | 19.08244 | -72.59724 | 19040 ft | 421 kts | 330° |
| 2026-04-24 12:11 | 19.10844 | -72.61147 | 19319 ft | 422 kts | 328° |
| 2026-04-24 12:11 | 19.13474 | -72.62671 | 19610 ft | 425 kts | 328° |
| 2026-04-24 12:12 | 19.16047 | -72.64180 | 19893 ft | 426 kts | 328° |
| 2026-04-24 12:12 | 19.19563 | -72.66245 | 20284 ft | 428 kts | 327° |
| 2026-04-24 12:12 | 19.21314 | -72.67277 | 20480 ft | 430 kts | 327° |
| 2026-04-24 12:12 | 19.23917 | -72.68806 | 20764 ft | 432 kts | 327° |
| 2026-04-24 12:13 | 19.26568 | -72.70358 | 21057 ft | 432 kts | 327° |
| 2026-04-24 12:13 | 19.29238 | -72.71918 | 21348 ft | 435 kts | 327° |
| 2026-04-24 12:13 | 19.31921 | -72.73482 | 21640 ft | 437 kts | 327° |
| 2026-04-24 12:13 | 19.34593 | -72.75039 | 21929 ft | 439 kts | 327° |
| 2026-04-24 12:14 | 19.37282 | -72.76605 | 22224 ft | 442 kts | 327° |
| 2026-04-24 12:14 | 19.40018 | -72.78198 | 22518 ft | 443 kts | 327° |
| 2026-04-24 12:14 | 19.42723 | -72.79775 | 22807 ft | 445 kts | 327° |
| 2026-04-24 12:14 | 19.45488 | -72.81387 | 23106 ft | 448 kts | 327° |
| 2026-04-24 12:15 | 19.48239 | -72.82991 | 23399 ft | 449 kts | 327° |
| 2026-04-24 12:15 | 19.51001 | -72.84602 | 23695 ft | 451 kts | 327° |
| 2026-04-24 12:15 | 19.53780 | -72.86225 | 23992 ft | 453 kts | 327° |
| 2026-04-24 12:15 | 19.56524 | -72.87826 | 24286 ft | 453 kts | 326° |
| 2026-04-24 12:16 | 19.59327 | -72.89464 | 24586 ft | 455 kts | 326° |
| 2026-04-24 12:16 | 19.62118 | -72.91094 | 24882 ft | 457 kts | 326° |
| 2026-04-24 12:16 | 19.64938 | -72.92744 | 25182 ft | 460 kts | 326° |
| 2026-04-24 12:16 | 19.67769 | -72.94399 | 25483 ft | 461 kts | 326° |
| 2026-04-24 12:17 | 19.70584 | -72.96046 | 25784 ft | 463 kts | 326° |
| 2026-04-24 12:17 | 19.73432 | -72.97714 | 26083 ft | 465 kts | 326° |
| 2026-04-24 12:17 | 19.76276 | -72.99379 | 26378 ft | 467 kts | 326° |
| 2026-04-24 12:17 | 19.79174 | -73.01077 | 26682 ft | 470 kts | 326° |
| 2026-04-24 12:18 | 19.82053 | -73.02764 | 26978 ft | 472 kts | 326° |
| 2026-04-24 12:18 | 19.84953 | -73.04466 | 27279 ft | 475 kts | 326° |
| 2026-04-24 12:18 | 19.87889 | -73.06187 | 27584 ft | 478 kts | 326° |
| 2026-04-24 12:18 | 19.90795 | -73.07893 | 27882 ft | 480 kts | 326° |
| 2026-04-24 12:19 | 19.93744 | -73.09624 | 28184 ft | 483 kts | 326° |
| 2026-04-24 12:19 | 19.96715 | -73.11369 | 28482 ft | 486 kts | 325° |
| 2026-04-24 12:19 | 19.99695 | -73.13120 | 28784 ft | 487 kts | 325° |
| 2026-04-24 12:19 | 20.02695 | -73.14882 | 29087 ft | 489 kts | 325° |
| 2026-04-24 12:20 | 20.05698 | -73.16648 | 29405 ft | 490 kts | 325° |
| 2026-04-24 12:20 | 20.08704 | -73.18416 | 29754 ft | 491 kts | 324° |
| 2026-04-24 12:20 | 20.11683 | -73.20169 | 30097 ft | 492 kts | 324° |
| 2026-04-24 12:20 | 20.14700 | -73.21944 | 30443 ft | 493 kts | 324° |
| 2026-04-24 12:21 | 20.17758 | -73.23689 | 30796 ft | 495 kts | 325° |
| 2026-04-24 12:21 | 20.20803 | -73.25389 | 31145 ft | 496 kts | 325° |
| 2026-04-24 12:21 | 20.23898 | -73.27107 | 31494 ft | 497 kts | 325° |
| 2026-04-24 12:21 | 20.26987 | -73.28824 | 31833 ft | 498 kts | 325° |
| 2026-04-24 12:22 | 20.30094 | -73.30555 | 32194 ft | 499 kts | 325° |
| 2026-04-24 12:22 | 20.33152 | -73.32262 | 32540 ft | 499 kts | 324° |
| 2026-04-24 12:22 | 20.36270 | -73.34007 | 32895 ft | 500 kts | 324° |
| 2026-04-24 12:22 | 20.39347 | -73.35731 | 33284 ft | 500 kts | 324° |
| 2026-04-24 12:23 | 20.42438 | -73.37463 | 33679 ft | 501 kts | 324° |
| 2026-04-24 12:23 | 20.45558 | -73.39214 | 34080 ft | 501 kts | 324° |
| 2026-04-24 12:23 | 20.48636 | -73.40940 | 34481 ft | 501 kts | 324° |
| 2026-04-24 12:23 | 20.51738 | -73.42681 | 34884 ft | 501 kts | 324° |
| 2026-04-24 12:24 | 20.54798 | -73.44399 | 35282 ft | 500 kts | 324° |
| 2026-04-24 12:24 | 20.57883 | -73.46132 | 35678 ft | 499 kts | 324° |
| 2026-04-24 12:24 | 20.60975 | -73.47869 | 36085 ft | 497 kts | 324° |
| 2026-04-24 12:24 | 20.64024 | -73.49583 | 36488 ft | 495 kts | 324° |
| 2026-04-24 12:25 | 20.67077 | -73.51301 | 36892 ft | 494 kts | 323° |
| 2026-04-24 12:25 | 20.70103 | -73.53004 | 37295 ft | 492 kts | 323° |
| 2026-04-24 12:25 | 20.73166 | -73.54728 | 37703 ft | 489 kts | 323° |
| 2026-04-24 12:25 | 20.76163 | -73.56418 | 37954 ft | 490 kts | 323° |
| 2026-04-24 12:26 | 20.79213 | -73.58139 | 37977 ft | 491 kts | 323° |
| 2026-04-24 12:26 | 20.85274 | -73.61561 | 37974 ft | 492 kts | 323° |
| 2026-04-24 12:27 | 20.91344 | -73.64987 | 37985 ft | 493 kts | 323° |
| 2026-04-24 12:27 | 20.97219 | -73.68631 | 37990 ft | 482 kts | 314° |
| 2026-04-24 12:28 | 21.02409 | -73.73122 | 37984 ft | 478 kts | 311° |
| 2026-04-24 12:28 | 21.07519 | -73.77747 | 37984 ft | 478 kts | 311° |
| 2026-04-24 12:29 | 21.12649 | -73.82340 | 37985 ft | 478 kts | 311° |
| 2026-04-24 12:29 | 21.17767 | -73.86890 | 37987 ft | 479 kts | 311° |
| 2026-04-24 12:30 | 21.22928 | -73.91472 | 37983 ft | 478 kts | 311° |
| 2026-04-24 12:30 | 21.28064 | -73.96031 | 37987 ft | 478 kts | 311° |
| 2026-04-24 12:31 | 21.33164 | -74.00565 | 37985 ft | 477 kts | 311° |
| 2026-04-24 12:31 | 21.38296 | -74.05130 | 37987 ft | 477 kts | 311° |
| 2026-04-24 12:32 | 21.43414 | -74.09688 | 37984 ft | 477 kts | 311° |
| 2026-04-24 12:32 | 21.48536 | -74.14253 | 37989 ft | 478 kts | 311° |
| 2026-04-24 12:33 | 21.53648 | -74.18813 | 37987 ft | 477 kts | 311° |
| 2026-04-24 12:33 | 21.58749 | -74.23368 | 37989 ft | 477 kts | 311° |
| 2026-04-24 12:34 | 21.63873 | -74.27948 | 37996 ft | 477 kts | 311° |
| 2026-04-24 12:34 | 21.68976 | -74.32514 | 37994 ft | 476 kts | 311° |
| 2026-04-24 12:35 | 21.74064 | -74.37070 | 37992 ft | 476 kts | 311° |
| 2026-04-24 12:35 | 21.79166 | -74.41643 | 37992 ft | 475 kts | 311° |
| 2026-04-24 12:36 | 21.84262 | -74.46216 | 37993 ft | 475 kts | 311° |
| 2026-04-24 12:36 | 21.89342 | -74.50778 | 37994 ft | 475 kts | 311° |
| 2026-04-24 12:37 | 21.94432 | -74.55353 | 37993 ft | 474 kts | 311° |
| 2026-04-24 12:37 | 21.99507 | -74.59921 | 37991 ft | 474 kts | 311° |
| 2026-04-24 12:38 | 22.04564 | -74.64475 | 37992 ft | 474 kts | 311° |
| 2026-04-24 12:38 | 22.09627 | -74.69067 | 37987 ft | 475 kts | 310° |
| 2026-04-24 12:39 | 22.19746 | -74.78249 | 37984 ft | 475 kts | 311° |
| 2026-04-24 12:40 | 22.24832 | -74.82851 | 37993 ft | 474 kts | 311° |
| 2026-04-24 12:40 | 22.29915 | -74.87450 | 37992 ft | 475 kts | 311° |
| 2026-04-24 12:41 | 22.34981 | -74.92041 | 37992 ft | 476 kts | 311° |
| 2026-04-24 12:41 | 22.40054 | -74.96641 | 37992 ft | 476 kts | 311° |
| 2026-04-24 12:42 | 22.45144 | -75.01261 | 37993 ft | 476 kts | 311° |
| 2026-04-24 12:42 | 22.50223 | -75.05876 | 37992 ft | 476 kts | 311° |
| 2026-04-24 12:43 | 22.55300 | -75.10495 | 37992 ft | 476 kts | 311° |
| 2026-04-24 12:43 | 22.60361 | -75.15102 | 37988 ft | 476 kts | 311° |
| 2026-04-24 12:44 | 22.65444 | -75.19735 | 37983 ft | 476 kts | 311° |
| 2026-04-24 12:44 | 22.70528 | -75.24373 | 37981 ft | 477 kts | 311° |
| 2026-04-24 12:45 | 22.75627 | -75.29030 | 37982 ft | 477 kts | 311° |
| 2026-04-24 12:45 | 22.80711 | -75.33677 | 37983 ft | 478 kts | 311° |
| 2026-04-24 12:46 | 22.85808 | -75.38340 | 37983 ft | 478 kts | 311° |
| 2026-04-24 12:46 | 22.90896 | -75.43001 | 37983 ft | 478 kts | 311° |
| 2026-04-24 12:47 | 22.96870 | -75.48479 | 37983 ft | 478 kts | 311° |
| 2026-04-24 12:47 | 23.01092 | -75.52354 | 37984 ft | 478 kts | 312° |
| 2026-04-24 12:48 | 23.06201 | -75.57049 | 37988 ft | 479 kts | 311° |
| 2026-04-24 12:48 | 23.11287 | -75.61726 | 37986 ft | 478 kts | 311° |
| 2026-04-24 12:49 | 23.16351 | -75.66394 | 37995 ft | 479 kts | 311° |
| 2026-04-24 12:49 | 23.21412 | -75.71102 | 37992 ft | 479 kts | 311° |
| 2026-04-24 12:50 | 23.26511 | -75.75829 | 37995 ft | 480 kts | 311° |
| 2026-04-24 12:50 | 23.31593 | -75.80528 | 37992 ft | 480 kts | 311° |
| 2026-04-24 12:51 | 23.36661 | -75.85214 | 37995 ft | 480 kts | 311° |
| 2026-04-24 12:51 | 23.41731 | -75.89906 | 37998 ft | 480 kts | 312° |
| 2026-04-24 12:52 | 23.46829 | -75.94629 | 37995 ft | 480 kts | 312° |
| 2026-04-24 12:52 | 23.51949 | -75.99377 | 37996 ft | 479 kts | 312° |
| 2026-04-24 12:53 | 23.57006 | -76.04072 | 37998 ft | 479 kts | 312° |
| 2026-04-24 12:53 | 23.62087 | -76.08794 | 37999 ft | 479 kts | 312° |
| 2026-04-24 12:54 | 23.67173 | -76.13525 | 37999 ft | 479 kts | 312° |
| 2026-04-24 12:54 | 23.72272 | -76.18274 | 37997 ft | 479 kts | 312° |
| 2026-04-24 12:55 | 23.77332 | -76.22992 | 38004 ft | 480 kts | 312° |
| 2026-04-24 12:55 | 23.82428 | -76.27748 | 38003 ft | 480 kts | 312° |
| 2026-04-24 12:56 | 23.87469 | -76.32561 | 38003 ft | 479 kts | 311° |
| 2026-04-24 12:56 | 23.92496 | -76.37407 | 38004 ft | 480 kts | 311° |
| 2026-04-24 12:57 | 23.97540 | -76.42267 | 38004 ft | 480 kts | 311° |
| 2026-04-24 12:57 | 24.02609 | -76.47150 | 38010 ft | 480 kts | 311° |
| 2026-04-24 12:58 | 24.07664 | -76.52022 | 38001 ft | 480 kts | 311° |
| 2026-04-24 12:58 | 24.12660 | -76.56844 | 38011 ft | 480 kts | 312° |
| 2026-04-24 12:59 | 24.17679 | -76.61695 | 38010 ft | 480 kts | 312° |
| 2026-04-24 12:59 | 24.22712 | -76.66567 | 38010 ft | 480 kts | 311° |
| 2026-04-24 13:00 | 24.27715 | -76.71457 | 38012 ft | 481 kts | 311° |
| 2026-04-24 13:00 | 24.32743 | -76.76354 | 38009 ft | 481 kts | 311° |
| 2026-04-24 13:01 | 24.37777 | -76.81244 | 38007 ft | 481 kts | 311° |
| 2026-04-24 13:01 | 24.42780 | -76.86104 | 38008 ft | 481 kts | 311° |
| 2026-04-24 13:02 | 24.47803 | -76.90987 | 38005 ft | 481 kts | 312° |
| 2026-04-24 13:02 | 24.52827 | -76.95879 | 38011 ft | 481 kts | 312° |
| 2026-04-24 13:03 | 24.57852 | -77.00776 | 38005 ft | 481 kts | 312° |
| 2026-04-24 13:03 | 24.62864 | -77.05667 | 38007 ft | 482 kts | 312° |
| 2026-04-24 13:04 | 24.67776 | -77.10465 | 38005 ft | 482 kts | 312° |
| 2026-04-24 13:04 | 24.72742 | -77.15321 | 38005 ft | 482 kts | 312° |
| 2026-04-24 13:05 | 24.77721 | -77.20195 | 38005 ft | 483 kts | 312° |
| 2026-04-24 13:05 | 24.82715 | -77.25088 | 38014 ft | 483 kts | 313° |
| 2026-04-24 13:06 | 24.87684 | -77.29964 | 38008 ft | 483 kts | 313° |
| 2026-04-24 13:06 | 24.92701 | -77.34892 | 38016 ft | 483 kts | 313° |
| 2026-04-24 13:07 | 24.97692 | -77.39799 | 37999 ft | 483 kts | 313° |
| 2026-04-24 13:07 | 25.02351 | -77.45028 | 37961 ft | 471 kts | 299° |
| 2026-04-24 13:08 | 25.05262 | -77.51362 | 37852 ft | 466 kts | 289° |
| 2026-04-24 13:08 | 25.06474 | -77.54642 | 37694 ft | 468 kts | 288° |
| 2026-04-24 13:08 | 25.07686 | -77.57993 | 37450 ft | 471 kts | 288° |
| 2026-04-24 13:09 | 25.10139 | -77.64708 | 36900 ft | 477 kts | 288° |
| 2026-04-24 13:09 | 25.11376 | -77.68074 | 36628 ft | 477 kts | 288° |
| 2026-04-24 13:09 | 25.12624 | -77.71481 | 36353 ft | 477 kts | 288° |
| 2026-04-24 13:09 | 25.13883 | -77.74902 | 35890 ft | 478 kts | 288° |
| 2026-04-24 13:10 | 25.15127 | -77.78261 | 35296 ft | 475 kts | 288° |
| 2026-04-24 13:10 | 25.16375 | -77.81615 | 34671 ft | 469 kts | 288° |
| 2026-04-24 13:10 | 25.17617 | -77.84947 | 34049 ft | 462 kts | 288° |
| 2026-04-24 13:10 | 25.18822 | -77.88180 | 33445 ft | 455 kts | 288° |
| 2026-04-24 13:11 | 25.20019 | -77.91394 | 32859 ft | 449 kts | 288° |
| 2026-04-24 13:11 | 25.21185 | -77.94527 | 32284 ft | 444 kts | 288° |
| 2026-04-24 13:11 | 25.22358 | -77.97685 | 31702 ft | 438 kts | 288° |
| 2026-04-24 13:11 | 25.23507 | -78.00781 | 31140 ft | 433 kts | 288° |
| 2026-04-24 13:12 | 25.24625 | -78.03793 | 30684 ft | 427 kts | 288° |
| 2026-04-24 13:12 | 25.25732 | -78.06780 | 30220 ft | 423 kts | 288° |
| 2026-04-24 13:12 | 25.26848 | -78.09795 | 29723 ft | 423 kts | 288° |
| 2026-04-24 13:12 | 25.27963 | -78.12811 | 29196 ft | 424 kts | 288° |
| 2026-04-24 13:13 | 25.29071 | -78.15812 | 28667 ft | 424 kts | 289° |
| 2026-04-24 13:13 | 25.30185 | -78.18819 | 28132 ft | 422 kts | 289° |
| 2026-04-24 13:13 | 25.31344 | -78.21783 | 27597 ft | 419 kts | 290° |
| 2026-04-24 13:13 | 25.32532 | -78.24728 | 27059 ft | 414 kts | 291° |
| 2026-04-24 13:14 | 25.33703 | -78.27618 | 26529 ft | 410 kts | 291° |
| 2026-04-24 13:14 | 25.34876 | -78.30519 | 25990 ft | 406 kts | 291° |
| 2026-04-24 13:14 | 25.36017 | -78.33356 | 25455 ft | 402 kts | 291° |
| 2026-04-24 13:14 | 25.37148 | -78.36173 | 24988 ft | 396 kts | 291° |
| 2026-04-24 13:15 | 25.38245 | -78.38914 | 24606 ft | 389 kts | 291° |
| 2026-04-24 13:15 | 25.39339 | -78.41650 | 24226 ft | 381 kts | 291° |
| 2026-04-24 13:15 | 25.40406 | -78.44324 | 23906 ft | 376 kts | 291° |
| 2026-04-24 13:15 | 25.41449 | -78.46961 | 23583 ft | 376 kts | 290° |
| 2026-04-24 13:16 | 25.42484 | -78.49648 | 23275 ft | 378 kts | 290° |
| 2026-04-24 13:16 | 25.43520 | -78.52355 | 22977 ft | 379 kts | 290° |
| 2026-04-24 13:16 | 25.44546 | -78.55030 | 22699 ft | 378 kts | 290° |
| 2026-04-24 13:16 | 25.45563 | -78.57679 | 22424 ft | 375 kts | 290° |
| 2026-04-24 13:17 | 25.46586 | -78.60345 | 22143 ft | 373 kts | 290° |
| 2026-04-24 13:17 | 25.47602 | -78.62995 | 21864 ft | 371 kts | 290° |
| 2026-04-24 13:17 | 25.48610 | -78.65622 | 21590 ft | 369 kts | 290° |
| 2026-04-24 13:17 | 25.49592 | -78.68218 | 21321 ft | 364 kts | 290° |
| 2026-04-24 13:18 | 25.50569 | -78.70802 | 20970 ft | 358 kts | 290° |
| 2026-04-24 13:18 | 25.51531 | -78.73335 | 20537 ft | 354 kts | 290° |
| 2026-04-24 13:18 | 25.52491 | -78.75858 | 20045 ft | 352 kts | 290° |
| 2026-04-24 13:18 | 25.53434 | -78.78329 | 19505 ft | 351 kts | 290° |
| 2026-04-24 13:19 | 25.54394 | -78.80844 | 18909 ft | 352 kts | 291° |
| 2026-04-24 13:19 | 25.55345 | -78.83337 | 18325 ft | 353 kts | 291° |
| 2026-04-24 13:19 | 25.56298 | -78.85833 | 17740 ft | 353 kts | 291° |
| 2026-04-24 13:19 | 25.57259 | -78.88351 | 17163 ft | 354 kts | 291° |
| 2026-04-24 13:20 | 25.58213 | -78.90855 | 16586 ft | 354 kts | 291° |
| 2026-04-24 13:20 | 25.59178 | -78.93385 | 16005 ft | 354 kts | 291° |
| 2026-04-24 13:20 | 25.60140 | -78.95910 | 15423 ft | 354 kts | 291° |
| 2026-04-24 13:20 | 25.61085 | -78.98395 | 14901 ft | 352 kts | 292° |
| 2026-04-24 13:21 | 25.62037 | -79.00896 | 14407 ft | 350 kts | 292° |
| 2026-04-24 13:21 | 25.62977 | -79.03369 | 13915 ft | 347 kts | 292° |
| 2026-04-24 13:21 | 25.63916 | -79.05853 | 13418 ft | 345 kts | 292° |
| 2026-04-24 13:21 | 25.64832 | -79.08289 | 12926 ft | 343 kts | 292° |
| 2026-04-24 13:22 | 25.65746 | -79.10723 | 12423 ft | 340 kts | 292° |
| 2026-04-24 13:22 | 25.66652 | -79.13137 | 11960 ft | 337 kts | 292° |
| 2026-04-24 13:22 | 25.67555 | -79.15543 | 11582 ft | 331 kts | 292° |
| 2026-04-24 13:22 | 25.68437 | -79.17893 | 11239 ft | 325 kts | 292° |
| 2026-04-24 13:23 | 25.69288 | -79.20163 | 10906 ft | 319 kts | 292° |
| 2026-04-24 13:23 | 25.70143 | -79.22444 | 10564 ft | 314 kts | 292° |
| 2026-04-24 13:23 | 25.70972 | -79.24657 | 10230 ft | 309 kts | 292° |
| 2026-04-24 13:23 | 25.71791 | -79.26847 | 10048 ft | 299 kts | 292° |
| 2026-04-24 13:24 | 25.72593 | -79.28989 | 9900 ft | 301 kts | 293° |
| 2026-04-24 13:24 | 25.73397 | -79.31155 | 9844 ft | 305 kts | 292° |
| 2026-04-24 13:24 | 25.74199 | -79.33337 | 9753 ft | 305 kts | 292° |
| 2026-04-24 13:24 | 25.74995 | -79.35509 | 9607 ft | 305 kts | 292° |
| 2026-04-24 13:25 | 25.75797 | -79.37696 | 9441 ft | 304 kts | 292° |
| 2026-04-24 13:25 | 25.76586 | -79.39844 | 9265 ft | 297 kts | 292° |
| 2026-04-24 13:25 | 25.77358 | -79.41952 | 9079 ft | 288 kts | 292° |
| 2026-04-24 13:25 | 25.78106 | -79.43993 | 8794 ft | 283 kts | 292° |
| 2026-04-24 13:26 | 25.78847 | -79.46015 | 8509 ft | 280 kts | 292° |
| 2026-04-24 13:26 | 25.79572 | -79.47996 | 8217 ft | 279 kts | 292° |
| 2026-04-24 13:26 | 25.80310 | -79.50014 | 7859 ft | 280 kts | 292° |
| 2026-04-24 13:26 | 25.81041 | -79.52012 | 7505 ft | 279 kts | 292° |
| 2026-04-24 13:27 | 25.81770 | -79.54005 | 7151 ft | 277 kts | 292° |
| 2026-04-24 13:27 | 25.82487 | -79.55966 | 6842 ft | 274 kts | 292° |
| 2026-04-24 13:27 | 25.83203 | -79.57927 | 6722 ft | 270 kts | 292° |
| 2026-04-24 13:27 | 25.83919 | -79.59887 | 6498 ft | 280 kts | 293° |
| 2026-04-24 13:28 | 25.84668 | -79.61881 | 6172 ft | 280 kts | 293° |
| 2026-04-24 13:28 | 25.85418 | -79.63861 | 6031 ft | 272 kts | 293° |
| 2026-04-24 13:28 | 25.86202 | -79.65793 | 6002 ft | 275 kts | 295° |
| 2026-04-24 13:28 | 25.87021 | -79.67707 | 5999 ft | 278 kts | 296° |
| 2026-04-24 13:29 | 25.87863 | -79.69666 | 5997 ft | 277 kts | 296° |
| 2026-04-24 13:29 | 25.88688 | -79.71584 | 5995 ft | 276 kts | 296° |
| 2026-04-24 13:29 | 25.89523 | -79.73526 | 5995 ft | 275 kts | 296° |
| 2026-04-24 13:29 | 25.90334 | -79.75423 | 5995 ft | 274 kts | 296° |
| 2026-04-24 13:30 | 25.91152 | -79.77342 | 5996 ft | 275 kts | 296° |
| 2026-04-24 13:30 | 25.91978 | -79.79279 | 5996 ft | 275 kts | 296° |
| 2026-04-24 13:30 | 25.92796 | -79.81199 | 5995 ft | 275 kts | 296° |
| 2026-04-24 13:30 | 25.93614 | -79.83118 | 5995 ft | 277 kts | 295° |
| 2026-04-24 13:31 | 25.94445 | -79.85069 | 5994 ft | 277 kts | 295° |
| 2026-04-24 13:31 | 25.95276 | -79.87020 | 5993 ft | 277 kts | 295° |
| 2026-04-24 13:31 | 25.96091 | -79.88934 | 6001 ft | 277 kts | 295° |
| 2026-04-24 13:31 | 25.96917 | -79.90879 | 5993 ft | 277 kts | 295° |
| 2026-04-24 13:32 | 25.97741 | -79.92815 | 5991 ft | 277 kts | 295° |
| 2026-04-24 13:32 | 25.98578 | -79.94763 | 5989 ft | 277 kts | 298° |
| 2026-04-24 13:32 | 25.99727 | -79.96499 | 6000 ft | 279 kts | 312° |
| 2026-04-24 13:32 | 26.01028 | -79.98078 | 5998 ft | 278 kts | 313° |
| 2026-04-24 13:33 | 26.02344 | -79.99667 | 5999 ft | 277 kts | 313° |
| 2026-04-24 13:33 | 26.03641 | -80.01252 | 5997 ft | 276 kts | 313° |
| 2026-04-24 13:33 | 26.04926 | -80.02833 | 5997 ft | 276 kts | 313° |
| 2026-04-24 13:33 | 26.06226 | -80.04436 | 5996 ft | 275 kts | 313° |
| 2026-04-24 13:34 | 26.07502 | -80.06012 | 5998 ft | 276 kts | 313° |
| 2026-04-24 13:34 | 26.08803 | -80.07619 | 6000 ft | 276 kts | 312° |
| 2026-04-24 13:34 | 26.10095 | -80.09216 | 5999 ft | 276 kts | 312° |
| 2026-04-24 13:34 | 26.11385 | -80.10812 | 5998 ft | 277 kts | 312° |
| 2026-04-24 13:35 | 26.12661 | -80.12395 | 5998 ft | 277 kts | 312° |
| 2026-04-24 13:35 | 26.13956 | -80.14003 | 5995 ft | 277 kts | 310° |
| 2026-04-24 13:35 | 26.14914 | -80.15859 | 5715 ft | 285 kts | 285° |
| 2026-04-24 13:35 | 26.15113 | -80.18044 | 5358 ft | 284 kts | 270° |
| 2026-04-24 13:36 | 26.15093 | -80.20226 | 5101 ft | 277 kts | 269° |
| 2026-04-24 13:36 | 26.15073 | -80.22340 | 5018 ft | 265 kts | 270° |
| 2026-04-24 13:36 | 26.15069 | -80.24388 | 5002 ft | 263 kts | 270° |
| 2026-04-24 13:36 | 26.15073 | -80.26431 | 4999 ft | 265 kts | 270° |
| 2026-04-24 13:37 | 26.15080 | -80.28486 | 4995 ft | 265 kts | 270° |
| 2026-04-24 13:37 | 26.15088 | -80.30534 | 4994 ft | 266 kts | 270° |
| 2026-04-24 13:37 | 26.15097 | -80.32612 | 4994 ft | 266 kts | 270° |
| 2026-04-24 13:37 | 26.15105 | -80.34666 | 4995 ft | 265 kts | 270° |
| 2026-04-24 13:38 | 26.14937 | -80.36691 | 4994 ft | 264 kts | 263° |
| 2026-04-24 13:38 | 26.15024 | -80.38741 | 4989 ft | 266 kts | 270° |
| 2026-04-24 13:38 | 26.14745 | -80.40808 | 5000 ft | 268 kts | 257° |
| 2026-04-24 13:38 | 26.14310 | -80.42789 | 4994 ft | 266 kts | 253° |
| 2026-04-24 13:39 | 26.13742 | -80.44756 | 4991 ft | 266 kts | 249° |
| 2026-04-24 13:39 | 26.12727 | -80.46448 | 4992 ft | 265 kts | 219° |
| 2026-04-24 13:39 | 26.11155 | -80.47539 | 4693 ft | 270 kts | 198° |
| 2026-04-24 13:39 | 26.09316 | -80.47742 | 4301 ft | 266 kts | 169° |
| 2026-04-24 13:40 | 26.07687 | -80.46885 | 4063 ft | 254 kts | 136° |
| 2026-04-24 13:40 | 26.06830 | -80.45285 | 4005 ft | 236 kts | 101° |
| 2026-04-24 13:40 | 26.06869 | -80.43431 | 3996 ft | 244 kts | 83° |
| 2026-04-24 13:40 | 26.07174 | -80.41618 | 3987 ft | 231 kts | 73° |
| 2026-04-24 13:41 | 26.07761 | -80.39906 | 3867 ft | 244 kts | 73° |
| 2026-04-24 13:41 | 26.07909 | -80.38065 | 3530 ft | 238 kts | 94° |
| 2026-04-24 13:41 | 26.07805 | -80.36260 | 3192 ft | 230 kts | 92° |
| 2026-04-24 13:41 | 26.07783 | -80.34560 | 3013 ft | 208 kts | 91° |
| 2026-04-24 13:42 | 26.07716 | -80.32999 | 3011 ft | 199 kts | 98° |
| 2026-04-24 13:42 | 26.07682 | -80.31490 | 3073 ft | 192 kts | 89° |
| 2026-04-24 13:42 | 26.07714 | -80.29999 | 3124 ft | 195 kts | 90° |
| 2026-04-24 13:42 | 26.07730 | -80.28491 | 3110 ft | 195 kts | 90° |
| 2026-04-24 13:43 | 26.07733 | -80.26984 | 3063 ft | 195 kts | 91° |
| 2026-04-24 13:43 | 26.07628 | -80.25483 | 2978 ft | 195 kts | 96° |
| 2026-04-24 13:43 | 26.07607 | -80.23994 | 2842 ft | 194 kts | 88° |
| 2026-04-24 13:43 | 26.07662 | -80.22478 | 2582 ft | 197 kts | 89° |
| 2026-04-24 13:44 | 26.07687 | -80.20948 | 2120 ft | 196 kts | 90° |
| 2026-04-24 13:44 | 26.07620 | -80.19472 | 1719 ft | 188 kts | 99° |
| 2026-04-24 13:44 | 26.07590 | -80.18050 | 1671 ft | 188 kts | 88° |
| 2026-04-24 13:44 | 26.07635 | -80.16383 | 1687 ft | 241 kts | 91° |
| 2026-04-24 13:45 | 26.07648 | -80.14537 | 1686 ft | 238 kts | 89° |
| 2026-04-24 13:45 | 26.07399 | -80.12696 | 1681 ft | 245 kts | 115° |
| 2026-04-24 13:45 | 26.06222 | -80.11246 | 1733 ft | 271 kts | 148° |
| 2026-04-24 13:45 | 26.04367 | -80.10626 | 1853 ft | 290 kts | 177° |
| 2026-04-24 13:46 | 26.02393 | -80.11089 | 1982 ft | 296 kts | 205° |
| 2026-04-24 13:46 | 26.00740 | -80.12499 | 2116 ft | 300 kts | 226° |
| 2026-04-24 13:46 | 25.99600 | -80.14466 | 2246 ft | 304 kts | 246° |
| 2026-04-24 13:46 | 25.99114 | -80.16725 | 2444 ft | 306 kts | 266° |
| 2026-04-24 13:47 | 25.99166 | -80.19122 | 2651 ft | 308 kts | 271° |
| 2026-04-24 13:47 | 25.99186 | -80.21491 | 2853 ft | 308 kts | 270° |
| 2026-04-24 13:47 | 25.99193 | -80.23892 | 3056 ft | 308 kts | 270° |
| 2026-04-24 13:47 | 25.99200 | -80.26279 | 3258 ft | 308 kts | 270° |
| 2026-04-24 13:48 | 25.99208 | -80.28650 | 3458 ft | 309 kts | 270° |
| 2026-04-24 13:48 | 25.99216 | -80.31058 | 3661 ft | 311 kts | 270° |
| 2026-04-24 13:48 | 25.99222 | -80.33459 | 3860 ft | 310 kts | 270° |
| 2026-04-24 13:48 | 25.99227 | -80.35874 | 3957 ft | 312 kts | 270° |
| 2026-04-24 13:49 | 25.99231 | -80.38281 | 3979 ft | 312 kts | 270° |
| 2026-04-24 13:49 | 25.99235 | -80.40630 | 3984 ft | 313 kts | 270° |
| 2026-04-24 13:49 | 25.99240 | -80.43044 | 3985 ft | 312 kts | 270° |
| 2026-04-24 13:49 | 25.99410 | -80.45467 | 3984 ft | 313 kts | 283° |
| 2026-04-24 13:50 | 26.00224 | -80.47695 | 3985 ft | 313 kts | 302° |
| 2026-04-24 13:50 | 26.01631 | -80.49509 | 3990 ft | 304 kts | 321° |
| 2026-04-24 13:50 | 26.03405 | -80.50555 | 3983 ft | 281 kts | 348° |
| 2026-04-24 13:50 | 26.05274 | -80.50506 | 3946 ft | 255 kts | 21° |
| 2026-04-24 13:51 | 26.06675 | -80.49474 | 3772 ft | 243 kts | 53° |
| 2026-04-24 13:51 | 26.07311 | -80.47804 | 3429 ft | 230 kts | 84° |
| 2026-04-24 13:51 | 26.07409 | -80.46100 | 3148 ft | 209 kts | 89° |
| 2026-04-24 13:51 | 26.07521 | -80.44573 | 3019 ft | 195 kts | 84° |
| 2026-04-24 13:52 | 26.07717 | -80.43060 | 2994 ft | 195 kts | 83° |
| 2026-04-24 13:52 | 26.07829 | -80.41563 | 2988 ft | 195 kts | 89° |
| 2026-04-24 13:52 | 26.07885 | -80.40048 | 2985 ft | 194 kts | 89° |
| 2026-04-24 13:52 | 26.07939 | -80.38547 | 2987 ft | 196 kts | 89° |
| 2026-04-24 13:53 | 26.07993 | -80.37053 | 2985 ft | 194 kts | 89° |
| 2026-04-24 13:53 | 26.08046 | -80.35524 | 2986 ft | 196 kts | 89° |
| 2026-04-24 13:53 | 26.08094 | -80.34007 | 2905 ft | 197 kts | 89° |
| 2026-04-24 13:53 | 26.08089 | -80.32493 | 2743 ft | 195 kts | 98° |
| 2026-04-24 13:54 | 26.07863 | -80.31020 | 2591 ft | 193 kts | 101° |
| 2026-04-24 13:54 | 26.07660 | -80.29553 | 2437 ft | 192 kts | 96° |
| 2026-04-24 13:54 | 26.07630 | -80.28067 | 2283 ft | 191 kts | 91° |
| 2026-04-24 13:54 | 26.07629 | -80.26604 | 2202 ft | 189 kts | 89° |
| 2026-04-24 13:55 | 26.07684 | -80.25116 | 2147 ft | 191 kts | 89° |
| 2026-04-24 13:55 | 26.07705 | -80.23642 | 2042 ft | 191 kts | 92° |
| 2026-04-24 13:55 | 26.07684 | -80.22151 | 1926 ft | 192 kts | 91° |
| 2026-04-24 13:55 | 26.07673 | -80.20676 | 1613 ft | 195 kts | 92° |
| 2026-04-24 13:56 | 26.07649 | -80.19174 | 1011 ft | 198 kts | 91° |
| 2026-04-24 13:56 | 26.07668 | -80.17648 | 473 ft | 195 kts | 90° |
| 2026-04-24 13:56 | 26.07686 | -80.16182 | 80 ft | 187 kts | 90° |
| 2026-04-24 13:56 | 26.07692 | -80.14797 | 29 ft | 164 kts | 90° |
| 2026-04-24 13:57 | 26.07678 | -80.13850 | 15 ft | 62 kts | 92° |
| 2026-04-24 13:57 | 26.07676 | -80.13805 | 15 ft | 17 kts | 92° |
| 2026-04-24 13:57 | 26.07680 | -80.14033 | 15 ft | 29 kts | 89° |
| 2026-04-24 13:57 | 26.07677 | -80.14144 | 15 ft | 3 kts | 86° |
| 2026-04-24 13:58 | 26.07677 | -80.14146 | 15 ft | 1 kts | 86° |
| 2026-04-24 13:58 | 26.07678 | -80.14115 | 15 ft | 7 kts | 87° |
| 2026-04-24 13:58 | 26.07679 | -80.14037 | 15 ft | 8 kts | 107° |
| 2026-04-24 13:58 | 26.07672 | -80.14021 | 15 ft | 0 kts | 124° |
| 2026-04-24 13:59 | 26.07669 | -80.14014 | 15 ft | 1 kts | 103° |
| 2026-04-24 13:59 | 26.07669 | -80.13982 | 15 ft | 7 kts | 83° |
| 2026-04-24 13:59 | 26.07707 | -80.13929 | 15 ft | 11 kts | 13° |
| 2026-04-24 13:59 | 26.07792 | -80.13941 | 15 ft | 11 kts | 316° |
| 2026-04-24 14:00 | 26.07805 | -80.14013 | 15 ft | 8 kts | 271° |
| 2026-04-24 14:00 | 26.07806 | -80.14075 | 15 ft | 7 kts | 270° |
| 2026-04-24 14:00 | 26.07805 | -80.14131 | 15 ft | 6 kts | 269° |
| 2026-04-24 14:00 | 26.07804 | -80.14179 | 15 ft | 5 kts | 269° |
| 2026-04-24 14:01 | 26.07803 | -80.14220 | 15 ft | 5 kts | 268° |
| 2026-04-24 14:01 | 26.07802 | -80.14271 | 15 ft | 9 kts | 270° |
| 2026-04-24 14:01 | 26.07805 | -80.14384 | 15 ft | 20 kts | 272° |
| 2026-04-24 14:01 | 26.07808 | -80.14575 | 15 ft | 28 kts | 268° |
| 2026-04-24 14:02 | 26.07808 | -80.14701 | 15 ft | 2 kts | 287° |
| 2026-04-24 14:02 | 26.07809 | -80.14713 | 15 ft | 1 kts | 274° |
| 2026-04-24 14:02 | 26.07810 | -80.14743 | 15 ft | 6 kts | 270° |
| 2026-04-24 14:02 | 26.07813 | -80.14798 | 15 ft | 5 kts | 287° |
| 2026-04-24 14:03 | 26.07830 | -80.14822 | 15 ft | 2 kts | 336° |
| 2026-04-24 14:03 | 26.07839 | -80.14825 | 15 ft | 0 kts | 342° |
| 2026-04-24 14:03 | 26.07845 | -80.14828 | 15 ft | 2 kts | 347° |
| 2026-04-24 14:03 | 26.07879 | -80.14837 | 15 ft | 5 kts | 343° |
| 2026-04-24 14:04 | 26.07909 | -80.14848 | 15 ft | 3 kts | 340° |
| 2026-04-24 14:04 | 26.07917 | -80.14854 | 15 ft | 0 kts | 310° |
| 2026-04-24 14:04 | 26.07919 | -80.14856 | 14 ft | 0 kts | 296° |
| 2026-04-24 14:04 | 26.07920 | -80.14861 | 15 ft | 0 kts | 278° |
| 2026-04-24 14:05 | 26.07921 | -80.14871 | 14 ft | 1 kts | 277° |
| 2026-04-24 14:05 | 26.07922 | -80.14880 | 14 ft | 0 kts | 273° |
| 2026-04-24 16:54 | 26.07922 | -80.14887 | 14 ft | 1 kts | 269° |
| 2026-04-24 16:54 | 26.07917 | -80.14907 | 14 ft | 4 kts | 239° |
| 2026-04-24 16:54 | 26.07898 | -80.14945 | 14 ft | 6 kts | 250° |
| 2026-04-24 16:54 | 26.07886 | -80.15005 | 14 ft | 9 kts | 261° |
| 2026-04-24 16:55 | 26.07877 | -80.15045 | 14 ft | 3 kts | 219° |
| 2026-04-24 16:55 | 26.07849 | -80.15057 | 14 ft | 5 kts | 200° |
| 2026-04-24 16:55 | 26.07805 | -80.15092 | 14 ft | 9 kts | 219° |
| 2026-04-24 16:55 | 26.07736 | -80.15122 | 14 ft | 12 kts | 180° |
| 2026-04-24 16:56 | 26.07636 | -80.15112 | 14 ft | 16 kts | 177° |
| 2026-04-24 16:56 | 26.07514 | -80.15114 | 14 ft | 20 kts | 182° |